Aérodrome :
LOGIN :

S'inscrire | Disclaimer

   EN    FR    IT 

 










Légende :    VFR   VFR Marginal   IFR   IFR Intensif   IFR Très Intensif
Visi : 
Plafond : 
>= 8 km
>= 3000ft
5 à 8 km
1000 à 3000 ft
1500m à 5 km
500 à 1000 ft
800 à 1500m
200 à 500 ft
< 800m
< 200 ft
Symboles :   Orages  Brouillard  Fortes neiges  Fortes précipitations  Vent > 20 kt
SIGMETs :   Divers  Orages  Givrage  Turbulence  Onde Orograph.  Cendres Volcan.






- Altitude de l'aérodrome : 39 ft
- Code IATA : TRS


LIPQ - Friuli Venezia Giulia Apt. Trieste

DERNIER METAR :
  • 231920Z AUTO 02004KT 350V060 9999 FEW096/// BKN150/// BKN230/// 15/11 Q1016

METARs EXPIRÉS :
  • 231850Z AUTO 36009KT 9999 -RA VCTS SCT057/// SCT068/// BKN230/// 16/11 Q1016 RETSRA
  • 231820Z AUTO 29012G24KT 270V330 9999 TS BKN033/// 18/11 Q1016
  • 231750Z AUTO 19004KT 9999 SCT084/// 20/14 Q1016
  • 231720Z AUTO 21005KT 9999 OVC083/// 21/14 Q1015
  • 231650Z AUTO 21006KT 180V250 9999 SCT097/// 21/14 Q1015
  • 231620Z AUTO 20007KT 160V220 9999 NCD 22/14 Q1015
  • 231550Z AUTO 18007KT 9999 NCD 22/14 Q1015
  • 231520Z AUTO 18007KT 160V230 9999 NCD 22/14 Q1015
  • 231450Z AUTO 20009KT 170V240 9999 NCD 22/13 Q1015

TAF TAF LIPQ
Valide du 23 à 18h jusqu'au 24 à 18h UTC


231700Z 2318/2418 VRB05KT 9999 SCT030
TEMPO 2318/2322 TSRA
BECMG 2410/2412 21010KT



MET'MAP, la Météo Aéronautique d'un coup d'oeil ! - Copyright ORBIFLY Décembre 2007 - Disclaimer

ORBIFLY MET'MAP TEAM :

Programmation & Développement : Alexandra Zaïnal
Sur une idée originale de : Baudouin d'Aumeries
Soutien technique & logistique : Manuel Goepfert
Assistance : Marc-Olivier Méhu




SOURCES & CREDITS :

   NOAA